Time;durP1;ratioP1;P1;durP2;ratioP2;P2;SDS_P1;SDS_P2;PMS_P1;PMS_P2;Temp;Humidity;BMP_temperature;BMP_pressure;BME280_temperature;BME280_humidity;BME280_pressure;Samples;Min_cycle;Max_cycle;Signal;HPM_P1;HPM_P2
2021/09/08 00:00:12;;;;;;;9.47;3.10;;;;;;;20.85;72.11;100772.80;;;;-51
2021/09/08 00:03:12;;;;;;;3.45;3.15;;;;;;;20.84;72.09;100771.49;;;;-51
2021/09/08 00:06:12;;;;;;;3.29;2.99;;;;;;;20.83;72.10;100764.14;;;;-52
2021/09/08 00:09:12;;;;;;;3.67;3.11;;;;;;;20.83;72.19;100757.70;;;;-52
2021/09/08 00:12:12;;;;;;;3.27;2.98;;;;;;;20.83;72.15;100755.67;;;;-52
2021/09/08 00:15:12;;;;;;;3.50;3.20;;;;;;;20.84;72.16;100756.19;;;;-62
2021/09/08 00:18:12;;;;;;;3.31;3.01;;;;;;;20.82;72.09;100756.49;;;;-62
2021/09/08 00:21:12;;;;;;;3.40;3.10;;;;;;;20.82;72.09;100757.39;;;;-62
2021/09/08 00:24:12;;;;;;;3.43;3.13;;;;;;;20.82;72.11;100749.66;;;;-62
2021/09/08 00:27:12;;;;;;;3.28;2.98;;;;;;;20.82;72.14;100749.66;;;;-62
2021/09/08 00:30:12;;;;;;;3.25;2.95;;;;;;;20.82;72.11;100747.94;;;;-63
2021/09/08 00:33:12;;;;;;;3.32;3.02;;;;;;;20.80;72.08;100744.83;;;;-53
2021/09/08 00:36:12;;;;;;;3.29;2.99;;;;;;;20.80;72.12;100744.83;;;;-53
2021/09/08 00:39:12;;;;;;;3.68;3.09;;;;;;;20.81;72.08;100743.20;;;;-53
2021/09/08 00:42:12;;;;;;;3.95;2.93;;;;;;;20.81;72.09;100740.91;;;;-53
2021/09/08 00:45:12;;;;;;;3.45;3.15;;;;;;;20.80;72.08;100741.17;;;;-53
2021/09/08 00:48:12;;;;;;;3.45;3.15;;;;;;;20.80;72.10;100740.03;;;;-54
2021/09/08 00:51:12;;;;;;;3.49;3.19;;;;;;;20.80;72.08;100740.03;;;;-55
2021/09/08 00:54:13;;;;;;;3.59;3.29;;;;;;;20.78;72.14;100737.57;;;;-51
2021/09/08 00:57:12;;;;;;;3.43;3.13;;;;;;;20.79;72.06;100738.45;;;;-54
2021/09/08 01:00:12;;;;;;;3.22;2.93;;;;;;;20.79;72.09;100739.55;;;;-53
2021/09/08 01:03:12;;;;;;;3.50;3.20;;;;;;;20.79;72.11;100742.20;;;;-52
2021/09/08 01:06:12;;;;;;;3.41;3.07;;;;;;;20.78;72.03;100739.20;;;;-62
2021/09/08 01:09:13;;;;;;;3.31;3.01;;;;;;;20.78;72.13;100737.24;;;;-62
2021/09/08 01:12:12;;;;;;;3.40;3.13;;;;;;;20.78;72.12;100735.13;;;;-63
2021/09/08 01:15:12;;;;;;;3.32;3.02;;;;;;;20.78;72.07;100727.06;;;;-57
2021/09/08 01:18:12;;;;;;;3.30;3.00;;;;;;;20.78;72.07;100727.55;;;;-62
2021/09/08 01:21:12;;;;;;;3.29;2.99;;;;;;;20.77;72.11;100718.20;;;;-62
2021/09/08 01:24:12;;;;;;;3.38;3.08;;;;;;;20.77;72.12;100720.04;;;;-56
2021/09/08 01:27:12;;;;;;;3.29;2.99;;;;;;;20.77;72.12;100718.66;;;;-55
2021/09/08 01:30:12;;;;;;;3.42;3.12;;;;;;;20.77;72.06;100713.85;;;;-55
2021/09/08 01:33:12;;;;;;;3.20;2.90;;;;;;;20.76;72.12;100713.28;;;;-53
2021/09/08 01:36:12;;;;;;;3.38;3.08;;;;;;;20.76;72.14;100713.77;;;;-53
2021/09/08 01:39:16;;;;;;;3.55;3.21;;;;;;;20.76;72.10;100713.12;;;;-53
2021/09/08 01:42:12;;;;;;;3.41;2.89;;;;;;;20.75;72.12;100711.67;;;;-53
2021/09/08 01:45:12;;;;;;;3.48;3.07;;;;;;;20.75;72.11;100711.40;;;;-62
2021/09/08 01:48:12;;;;;;;3.42;3.12;;;;;;;20.75;72.08;100711.72;;;;-62
2021/09/08 01:51:12;;;;;;;3.28;2.98;;;;;;;20.74;72.12;100710.19;;;;-62
2021/09/08 01:54:12;;;;;;;3.67;3.16;;;;;;;20.74;72.14;100707.82;;;;-62
2021/09/08 01:57:12;;;;;;;3.46;3.16;;;;;;;20.74;72.14;100711.81;;;;-62
2021/09/08 02:00:12;;;;;;;3.76;3.11;;;;;;;20.74;72.05;100706.76;;;;-64
2021/09/08 02:03:12;;;;;;;3.27;2.97;;;;;;;20.73;72.15;100707.26;;;;-54
2021/09/08 02:06:12;;;;;;;3.48;3.18;;;;;;;20.73;72.13;100703.81;;;;-53
2021/09/08 02:09:12;;;;;;;3.41;3.11;;;;;;;20.73;72.11;100704.47;;;;-54
2021/09/08 02:12:12;;;;;;;3.48;3.13;;;;;;;20.73;72.11;100704.71;;;;-53
2021/09/08 02:15:12;;;;;;;3.29;3.03;;;;;;;20.72;72.08;100703.17;;;;-54
2021/09/08 02:18:12;;;;;;;3.33;3.03;;;;;;;20.71;72.11;100701.55;;;;-53
2021/09/08 02:21:12;;;;;;;3.33;3.03;;;;;;;20.72;72.16;100699.58;;;;-53
2021/09/08 02:24:12;;;;;;;3.48;3.18;;;;;;;20.72;72.12;100696.41;;;;-54
2021/09/08 02:27:12;;;;;;;3.66;3.13;;;;;;;20.72;72.08;100695.52;;;;-53
2021/09/08 02:30:12;;;;;;;3.29;2.99;;;;;;;20.71;72.06;100691.28;;;;-53
2021/09/08 02:33:12;;;;;;;3.37;3.07;;;;;;;20.71;72.12;100692.42;;;;-53
2021/09/08 02:36:12;;;;;;;3.51;3.21;;;;;;;20.71;72.08;100692.81;;;;-53
2021/09/08 02:39:12;;;;;;;3.30;3.00;;;;;;;20.71;72.11;100693.63;;;;-54
2021/09/08 02:42:12;;;;;;;3.33;2.99;;;;;;;20.69;72.09;100689.73;;;;-53
2021/09/08 02:45:12;;;;;;;3.55;3.25;;;;;;;20.70;72.14;100688.02;;;;-53
2021/09/08 02:48:12;;;;;;;3.67;3.37;;;;;;;20.69;72.09;100686.30;;;;-51
2021/09/08 02:51:12;;;;;;;3.40;3.10;;;;;;;20.69;72.14;100683.70;;;;-51
2021/09/08 02:54:12;;;;;;;3.21;3.01;;;;;;;20.68;72.10;100678.47;;;;-52
2021/09/08 02:57:12;;;;;;;3.57;3.27;;;;;;;20.69;72.06;100678.57;;;;-52
2021/09/08 03:00:12;;;;;;;3.33;3.03;;;;;;;20.68;72.06;100677.81;;;;-51
2021/09/08 03:03:12;;;;;;;3.61;3.24;;;;;;;20.68;72.09;100677.00;;;;-52
2021/09/08 03:06:12;;;;;;;3.55;3.25;;;;;;;20.68;72.11;100675.38;;;;-52
2021/09/08 03:09:12;;;;;;;3.43;3.13;;;;;;;20.68;72.08;100674.72;;;;-53
2021/09/08 03:12:12;;;;;;;3.23;2.96;;;;;;;20.68;72.07;100671.70;;;;-51
2021/09/08 03:15:12;;;;;;;3.31;3.05;;;;;;;20.68;72.08;100668.30;;;;-51
2021/09/08 03:18:12;;;;;;;3.55;3.26;;;;;;;20.68;72.12;100666.99;;;;-53
2021/09/08 03:21:12;;;;;;;3.53;3.23;;;;;;;20.68;72.14;100663.16;;;;-51
2021/09/08 03:24:12;;;;;;;3.41;3.11;;;;;;;20.67;72.08;100664.85;;;;-51
2021/09/08 03:27:12;;;;;;;3.43;3.13;;;;;;;20.67;72.09;100664.97;;;;-51
2021/09/08 03:30:12;;;;;;;3.60;3.30;;;;;;;20.66;72.13;100665.27;;;;-51
2021/09/08 03:33:12;;;;;;;3.24;2.97;;;;;;;20.67;72.11;100669.36;;;;-52
2021/09/08 03:36:12;;;;;;;3.35;3.05;;;;;;;20.67;72.05;100668.30;;;;-51
2021/09/08 03:39:12;;;;;;;3.40;3.10;;;;;;;20.67;72.03;100671.31;;;;-51
2021/09/08 03:42:12;;;;;;;3.33;3.03;;;;;;;20.67;72.09;100669.91;;;;-52
2021/09/08 03:45:12;;;;;;;3.50;3.20;;;;;;;20.66;72.07;100669.58;;;;-53
2021/09/08 03:48:12;;;;;;;3.54;3.24;;;;;;;20.65;72.08;100665.92;;;;-52
2021/09/08 03:51:13;;;;;;;3.33;3.03;;;;;;;20.66;72.03;100661.93;;;;-52
2021/09/08 03:54:12;;;;;;;3.69;3.36;;;;;;;20.65;72.11;100665.28;;;;-51
2021/09/08 03:57:12;;;;;;;3.55;3.25;;;;;;;20.65;72.05;100659.73;;;;-52
2021/09/08 04:00:12;;;;;;;3.42;3.12;;;;;;;20.66;72.10;100659.00;;;;-52
2021/09/08 04:03:12;;;;;;;3.63;3.33;;;;;;;20.65;72.04;100658.27;;;;-51
2021/09/08 04:06:12;;;;;;;3.39;3.09;;;;;;;20.64;72.10;100653.36;;;;-52
2021/09/08 04:09:12;;;;;;;3.45;3.15;;;;;;;20.64;72.05;100650.67;;;;-51
2021/09/08 04:12:12;;;;;;;3.57;3.27;;;;;;;20.64;72.07;100646.04;;;;-52
2021/09/08 04:15:12;;;;;;;3.45;3.15;;;;;;;20.64;72.11;100647.42;;;;-52
2021/09/08 04:18:12;;;;;;;3.40;3.10;;;;;;;20.63;72.03;100642.30;;;;-52
2021/09/08 04:21:12;;;;;;;3.67;3.37;;;;;;;20.63;72.02;100643.60;;;;-52
2021/09/08 04:24:12;;;;;;;3.39;3.09;;;;;;;20.63;72.03;100641.89;;;;-52
2021/09/08 04:27:12;;;;;;;3.46;3.16;;;;;;;20.63;72.04;100641.48;;;;-52
2021/09/08 04:30:12;;;;;;;6.04;3.85;;;;;;;20.64;72.13;100644.98;;;;-53
2021/09/08 04:33:12;;;;;;;3.66;3.36;;;;;;;20.62;72.16;100646.35;;;;-51
2021/09/08 04:36:12;;;;;;;3.94;3.45;;;;;;;20.63;72.14;100643.83;;;;-52
2021/09/08 04:39:12;;;;;;;5.16;3.33;;;;;;;20.63;72.10;100644.15;;;;-54
2021/09/08 04:42:12;;;;;;;4.93;3.43;;;;;;;20.63;72.02;100647.89;;;;-52
2021/09/08 04:45:12;;;;;;;5.53;3.46;;;;;;;20.63;72.10;100645.94;;;;-51
2021/09/08 04:48:12;;;;;;;6.15;3.59;;;;;;;20.63;72.03;100648.49;;;;-54
2021/09/08 04:51:12;;;;;;;3.82;3.41;;;;;;;20.62;72.09;100649.38;;;;-51
2021/09/08 04:54:12;;;;;;;5.57;3.40;;;;;;;20.62;72.06;100654.91;;;;-51
2021/09/08 04:57:12;;;;;;;4.97;3.37;;;;;;;20.62;72.07;100655.72;;;;-51
2021/09/08 05:00:12;;;;;;;3.81;3.35;;;;;;;20.62;72.10;100658.00;;;;-53
2021/09/08 05:03:12;;;;;;;4.84;3.77;;;;;;;20.61;72.03;100656.30;;;;-51
2021/09/08 05:06:12;;;;;;;4.95;3.75;;;;;;;20.61;72.05;100657.36;;;;-53
2021/09/08 05:09:12;;;;;;;4.17;3.41;;;;;;;20.61;72.09;100657.11;;;;-51
2021/09/08 05:12:12;;;;;;;3.89;3.41;;;;;;;20.61;72.06;100659.31;;;;-51
2021/09/08 05:15:12;;;;;;;4.27;3.41;;;;;;;20.60;72.10;100655.47;;;;-51
2021/09/08 05:18:12;;;;;;;4.18;3.45;;;;;;;20.61;72.06;100651.63;;;;-53
2021/09/08 05:21:12;;;;;;;3.55;3.25;;;;;;;20.60;72.01;100649.77;;;;-51
2021/09/08 05:24:12;;;;;;;3.85;3.15;;;;;;;20.60;72.04;100650.33;;;;-51
2021/09/08 05:27:12;;;;;;;3.65;3.35;;;;;;;20.60;72.04;100651.47;;;;-51
2021/09/08 05:30:12;;;;;;;4.01;3.61;;;;;;;20.60;72.04;100650.09;;;;-51
2021/09/08 05:33:12;;;;;;;4.00;3.60;;;;;;;20.59;72.02;100655.39;;;;-52
2021/09/08 05:36:14;;;;;;;3.69;3.39;;;;;;;20.59;72.03;100657.34;;;;-51
2021/09/08 05:39:12;;;;;;;3.72;3.33;;;;;;;20.60;72.08;100658.48;;;;-51
2021/09/08 05:42:12;;;;;;;4.45;3.54;;;;;;;20.59;72.03;100658.89;;;;-53
2021/09/08 05:45:12;;;;;;;3.73;3.41;;;;;;;20.59;72.03;100656.77;;;;-52
2021/09/08 05:48:12;;;;;;;3.79;3.47;;;;;;;20.59;72.03;100659.70;;;;-51
2021/09/08 05:51:12;;;;;;;3.73;3.43;;;;;;;20.58;72.05;100659.77;;;;-52
2021/09/08 05:54:12;;;;;;;3.86;3.54;;;;;;;20.58;72.03;100661.48;;;;-51
2021/09/08 05:57:12;;;;;;;3.64;3.34;;;;;;;20.59;72.05;100661.34;;;;-51
2021/09/08 06:00:12;;;;;;;3.51;3.21;;;;;;;20.58;72.05;100659.98;;;;-54
2021/09/08 06:03:12;;;;;;;3.93;3.41;;;;;;;20.57;72.04;100658.44;;;;-54
2021/09/08 06:06:12;;;;;;;3.55;3.25;;;;;;;20.57;72.05;100657.22;;;;-54
2021/09/08 06:09:12;;;;;;;3.62;3.32;;;;;;;20.58;72.05;100658.70;;;;-54
2021/09/08 06:12:12;;;;;;;3.59;3.29;;;;;;;20.57;72.07;100656.81;;;;-54
2021/09/08 06:15:12;;;;;;;3.68;3.38;;;;;;;20.57;72.04;100659.41;;;;-54
2021/09/08 06:18:12;;;;;;;3.63;3.33;;;;;;;20.58;72.06;100660.14;;;;-54
2021/09/08 06:21:12;;;;;;;3.58;3.28;;;;;;;20.57;72.08;100662.67;;;;-54
2021/09/08 06:24:13;;;;;;;3.70;3.27;;;;;;;20.57;72.08;100661.86;;;;-54
2021/09/08 06:27:12;;;;;;;3.83;3.53;;;;;;;20.57;72.08;100659.09;;;;-57
2021/09/08 06:30:12;;;;;;;4.02;3.50;;;;;;;20.57;72.07;100657.22;;;;-57
2021/09/08 06:33:12;;;;;;;4.00;3.55;;;;;;;20.57;72.10;100656.58;;;;-57
2021/09/08 06:36:12;;;;;;;3.61;3.31;;;;;;;20.57;72.04;100657.14;;;;-57
2021/09/08 06:39:12;;;;;;;3.42;3.12;;;;;;;20.56;72.04;100655.66;;;;-57
2021/09/08 06:42:12;;;;;;;3.76;3.46;;;;;;;20.56;72.08;100653.13;;;;-57
2021/09/08 06:45:12;;;;;;;3.74;3.37;;;;;;;20.55;72.12;100645.56;;;;-56
2021/09/08 06:48:12;;;;;;;3.80;3.50;;;;;;;20.56;72.06;100640.34;;;;-57
2021/09/08 06:51:12;;;;;;;3.75;3.45;;;;;;;20.56;72.12;100637.50;;;;-57
2021/09/08 06:54:12;;;;;;;3.62;3.32;;;;;;;20.56;72.07;100635.70;;;;-54
2021/09/08 06:57:13;;;;;;;3.83;3.45;;;;;;;20.55;72.13;100632.38;;;;-54
2021/09/08 07:00:12;;;;;;;3.73;3.30;;;;;;;20.56;72.09;100630.98;;;;-54
2021/09/08 07:03:12;;;;;;;3.59;3.29;;;;;;;20.56;72.05;100628.14;;;;-57
2021/09/08 07:06:12;;;;;;;3.59;3.25;;;;;;;20.56;72.09;100627.00;;;;-63
2021/09/08 07:09:12;;;;;;;3.71;3.41;;;;;;;20.55;72.07;100624.31;;;;-63
2021/09/08 07:12:12;;;;;;;3.75;3.43;;;;;;;20.55;72.07;100625.78;;;;-53
2021/09/08 07:15:12;;;;;;;3.37;3.07;;;;;;;20.55;72.04;100623.34;;;;-54
2021/09/08 07:18:12;;;;;;;3.64;3.34;;;;;;;20.55;72.05;100626.35;;;;-53
2021/09/08 07:21:12;;;;;;;3.81;3.51;;;;;;;20.55;72.04;100625.62;;;;-51
2021/09/08 07:24:12;;;;;;;3.68;3.38;;;;;;;20.56;72.04;100623.66;;;;-51
2021/09/08 07:27:12;;;;;;;3.65;3.35;;;;;;;20.55;72.05;100622.11;;;;-53
2021/09/08 07:30:12;;;;;;;3.38;3.11;;;;;;;20.55;72.06;100626.35;;;;-52
2021/09/08 07:33:12;;;;;;;3.47;3.17;;;;;;;20.55;72.05;100624.39;;;;-52
2021/09/08 07:36:12;;;;;;;3.95;3.58;;;;;;;20.56;72.06;100622.59;;;;-51
2021/09/08 07:39:12;;;;;;;3.81;3.51;;;;;;;20.56;72.03;100622.68;;;;-52
2021/09/08 07:42:12;;;;;;;3.47;3.17;;;;;;;20.55;72.06;100617.16;;;;-63
2021/09/08 07:45:12;;;;;;;3.50;3.20;;;;;;;20.55;72.07;100618.21;;;;-54
2021/09/08 07:48:12;;;;;;;3.45;3.15;;;;;;;20.55;72.06;100620.58;;;;-63
2021/09/08 07:51:12;;;;;;;3.59;3.29;;;;;;;20.55;72.09;100619.11;;;;-54
2021/09/08 07:54:12;;;;;;;4.28;3.31;;;;;;;20.55;72.12;100615.77;;;;-53
2021/09/08 07:57:12;;;;;;;9.51;3.59;;;;;;;20.56;72.16;100611.53;;;;-60
2021/09/08 08:00:12;;;;;;;5.90;5.11;;;;;;;20.56;71.32;100611.93;;;;-59
2021/09/08 08:03:12;;;;;;;7.54;5.80;;;;;;;20.57;71.14;100612.12;;;;-53
2021/09/08 08:06:12;;;;;;;7.38;6.18;;;;;;;20.56;71.35;100611.36;;;;-60
2021/09/08 08:09:12;;;;;;;8.45;6.97;;;;;;;20.58;70.99;100609.69;;;;-58
2021/09/08 08:12:12;;;;;;;10.25;7.51;;;;;;;20.59;70.67;100605.48;;;;-55
2021/09/08 08:15:13;;;;;;;10.88;7.49;;;;;;;20.60;70.34;100607.42;;;;-63
2021/09/08 08:18:13;;;;;;;10.83;7.66;;;;;;;20.61;70.59;100604.23;;;;-63
2021/09/08 08:21:12;;;;;;;8.47;7.58;;;;;;;20.61;70.45;100603.13;;;;-62
2021/09/08 08:24:12;;;;;;;9.27;7.84;;;;;;;20.63;70.40;100601.42;;;;-60
2021/09/08 08:27:12;;;;;;;8.52;7.47;;;;;;;20.65;70.49;100599.05;;;;-60
2021/09/08 08:30:12;;;;;;;16.14;8.63;;;;;;;20.67;70.29;100595.17;;;;-52
2021/09/08 08:33:12;;;;;;;13.41;8.07;;;;;;;20.67;70.45;100594.77;;;;-52
2021/09/08 08:36:12;;;;;;;11.33;8.32;;;;;;;20.67;70.61;100591.40;;;;-52
2021/09/08 08:39:12;;;;;;;12.17;7.49;;;;;;;20.68;70.67;100587.02;;;;-54
2021/09/08 08:42:13;;;;;;;11.64;7.84;;;;;;;20.69;70.87;100587.12;;;;-51
2021/09/08 08:45:12;;;;;;;10.14;7.65;;;;;;;20.73;71.13;100584.91;;;;-52
2021/09/08 08:48:12;;;;;;;11.93;7.59;;;;;;;20.74;71.05;100586.55;;;;-57
2021/09/08 08:51:12;;;;;;;12.26;7.29;;;;;;;20.75;71.09;100583.72;;;;-61
2021/09/08 08:54:12;;;;;;;11.43;7.26;;;;;;;20.75;71.16;100579.95;;;;-57
2021/09/08 08:57:12;;;;;;;11.21;6.87;;;;;;;20.75;71.16;100579.30;;;;-57
2021/09/08 09:00:12;;;;;;;9.15;7.11;;;;;;;20.74;71.22;100577.75;;;;-57
2021/09/08 09:03:12;;;;;;;11.38;7.19;;;;;;;20.74;71.28;100576.20;;;;-57
2021/09/08 09:06:12;;;;;;;10.97;7.34;;;;;;;20.75;71.20;100572.61;;;;-56
2021/09/08 09:09:12;;;;;;;12.24;7.47;;;;;;;20.75;71.29;100570.50;;;;-56
2021/09/08 09:12:12;;;;;;;8.77;6.81;;;;;;;20.73;71.27;100560.25;;;;-57
2021/09/08 09:15:12;;;;;;;10.56;6.99;;;;;;;20.73;71.24;100562.94;;;;-57
2021/09/08 09:18:13;;;;;;;8.26;7.00;;;;;;;20.73;71.23;100552.00;;;;-56
2021/09/08 09:21:12;;;;;;;7.92;7.11;;;;;;;20.73;71.25;100549.67;;;;-58
2021/09/08 09:24:12;;;;;;;8.43;7.10;;;;;;;20.73;71.29;100545.16;;;;-56
2021/09/08 09:27:12;;;;;;;7.66;6.64;;;;;;;20.73;71.32;100541.60;;;;-57
2021/09/08 09:30:12;;;;;;;7.83;6.72;;;;;;;20.73;71.35;100539.30;;;;-57
2021/09/08 09:33:12;;;;;;;8.13;6.80;;;;;;;20.73;71.33;100538.27;;;;-57
2021/09/08 09:36:12;;;;;;;7.93;6.69;;;;;;;20.73;71.35;100536.85;;;;-56
2021/09/08 09:39:12;;;;;;;10.12;6.72;;;;;;;20.73;71.27;100532.54;;;;-57
2021/09/08 09:42:12;;;;;;;9.90;6.31;;;;;;;20.73;71.32;100523.12;;;;-58
2021/09/08 09:45:12;;;;;;;8.17;6.47;;;;;;;20.73;71.32;100520.34;;;;-56
2021/09/08 09:48:12;;;;;;;6.75;6.00;;;;;;;20.73;71.34;100515.52;;;;-56
2021/09/08 09:51:12;;;;;;;7.36;6.55;;;;;;;20.73;71.28;100514.65;;;;-58
2021/09/08 09:54:15;;;;;;;8.29;6.61;;;;;;;20.73;71.30;100505.85;;;;-61
2021/09/08 09:57:12;;;;;;;7.23;6.30;;;;;;;20.73;71.32;100505.91;;;;-60
2021/09/08 10:00:12;;;;;;;8.49;6.61;;;;;;;20.73;71.27;100503.00;;;;-60
2021/09/08 10:03:12;;;;;;;6.73;6.11;;;;;;;20.73;71.29;100492.25;;;;-60
2021/09/08 10:06:12;;;;;;;7.25;6.24;;;;;;;20.73;71.30;100485.16;;;;-56
2021/09/08 10:09:12;;;;;;;6.76;5.92;;;;;;;20.73;71.34;100478.38;;;;-61
2021/09/08 10:12:14;;;;;;;7.23;6.53;;;;;;;20.73;71.36;100477.42;;;;-60
2021/09/08 10:15:12;;;;;;;6.77;6.07;;;;;;;20.73;71.33;100476.59;;;;-60
2021/09/08 10:18:12;;;;;;;6.78;6.01;;;;;;;20.73;71.32;100466.11;;;;-60
2021/09/08 10:21:14;;;;;;;6.89;6.18;;;;;;;20.73;71.30;100465.19;;;;-60
2021/09/08 10:24:12;;;;;;;7.60;6.19;;;;;;;20.73;71.37;100464.72;;;;-60
2021/09/08 10:27:12;;;;;;;6.97;6.27;;;;;;;20.73;71.37;100461.60;;;;-60
2021/09/08 10:30:12;;;;;;;6.96;6.26;;;;;;;20.73;71.37;100455.92;;;;-61
2021/09/08 10:33:12;;;;;;;6.38;5.78;;;;;;;20.73;71.34;100454.59;;;;-60
2021/09/08 10:36:12;;;;;;;6.81;6.08;;;;;;;20.73;71.28;100454.30;;;;-57
2021/09/08 10:39:12;;;;;;;6.86;6.01;;;;;;;20.73;71.28;100447.05;;;;-58
2021/09/08 10:42:12;;;;;;;7.11;6.23;;;;;;;20.73;71.27;100442.66;;;;-57
2021/09/08 10:45:12;;;;;;;6.48;5.88;;;;;;;20.73;71.31;100441.49;;;;-57
2021/09/08 10:48:12;;;;;;;7.24;5.79;;;;;;;20.73;71.33;100440.30;;;;-57
2021/09/08 10:51:12;;;;;;;6.80;6.12;;;;;;;20.73;71.38;100436.47;;;;-57
2021/09/08 10:54:12;;;;;;;8.56;5.84;;;;;;;20.73;71.45;100432.72;;;;-56
2021/09/08 10:57:14;;;;;;;6.95;6.03;;;;;;;20.74;71.47;100424.23;;;;-56
2021/09/08 11:00:12;;;;;;;9.67;6.20;;;;;;;20.77;71.68;100417.39;;;;-51
2021/09/08 11:03:12;;;;;;;7.93;5.77;;;;;;;20.78;71.63;100418.30;;;;-54
2021/09/08 11:06:12;;;;;;;6.57;5.87;;;;;;;20.78;71.82;100414.64;;;;-54
2021/09/08 11:09:12;;;;;;;6.57;5.74;;;;;;;20.78;71.84;100411.87;;;;-54
2021/09/08 11:12:12;;;;;;;7.59;5.81;;;;;;;20.77;71.80;100410.98;;;;-54
2021/09/08 11:15:12;;;;;;;7.13;5.79;;;;;;;20.78;71.71;100404.69;;;;-59
2021/09/08 11:18:12;;;;;;;7.25;5.81;;;;;;;20.78;71.78;100406.73;;;;-52
2021/09/08 11:21:12;;;;;;;6.63;5.45;;;;;;;20.78;71.74;100401.44;;;;-51
2021/09/08 11:24:12;;;;;;;8.44;5.71;;;;;;;20.78;71.70;100405.19;;;;-52
2021/09/08 11:27:12;;;;;;;6.40;5.59;;;;;;;20.78;71.67;100397.28;;;;-51
2021/09/08 11:30:12;;;;;;;8.19;5.59;;;;;;;20.77;71.64;100392.05;;;;-51
2021/09/08 11:33:12;;;;;;;6.30;5.68;;;;;;;20.77;71.65;100396.80;;;;-52
2021/09/08 11:36:12;;;;;;;7.21;5.86;;;;;;;20.78;71.61;100398.26;;;;-52
2021/09/08 11:39:12;;;;;;;6.53;5.89;;;;;;;20.78;71.60;100397.20;;;;-51
2021/09/08 11:42:13;;;;;;;6.42;5.68;;;;;;;20.78;71.61;100393.95;;;;-51
2021/09/08 11:45:12;;;;;;;5.85;5.31;;;;;;;20.78;71.61;100393.70;;;;-51
2021/09/08 11:48:12;;;;;;;6.29;5.51;;;;;;;20.78;71.53;100388.33;;;;-55
2021/09/08 11:51:12;;;;;;;7.29;5.41;;;;;;;20.78;71.58;100391.26;;;;-54
2021/09/08 11:54:12;;;;;;;6.53;5.69;;;;;;;20.78;71.66;100386.52;;;;-55
2021/09/08 11:57:14;;;;;;;6.12;5.37;;;;;;;20.78;71.67;100381.89;;;;-66
2021/09/08 12:00:12;;;;;;;6.42;5.51;;;;;;;20.79;71.71;100376.93;;;;-60
2021/09/08 12:03:12;;;;;;;7.79;5.44;;;;;;;20.82;71.82;100371.80;;;;-54
2021/09/08 12:06:12;;;;;;;11.95;5.86;;;;;;;20.83;71.88;100370.55;;;;-59
2021/09/08 12:09:12;;;;;;;9.13;5.70;;;;;;;20.84;71.84;100366.82;;;;-61
2021/09/08 12:12:12;;;;;;;8.74;5.65;;;;;;;20.85;71.82;100368.36;;;;-66
2021/09/08 12:15:12;;;;;;;9.12;5.52;;;;;;;20.86;71.79;100366.24;;;;-57
2021/09/08 12:18:12;;;;;;;8.64;5.64;;;;;;;20.87;71.91;100359.72;;;;-52
2021/09/08 12:21:12;;;;;;;7.13;5.40;;;;;;;20.88;71.85;100358.34;;;;-51
2021/09/08 12:24:12;;;;;;;9.15;5.35;;;;;;;20.89;71.89;100352.46;;;;-60
2021/09/08 12:27:12;;;;;;;7.71;5.49;;;;;;;20.92;71.90;100351.89;;;;-68
2021/09/08 12:30:12;;;;;;;6.85;5.23;;;;;;;20.93;71.89;100344.97;;;;-66
2021/09/08 12:33:13;;;;;;;10.09;5.71;;;;;;;20.93;71.99;100349.69;;;;-56
2021/09/08 12:36:12;;;;;;;10.43;5.73;;;;;;;20.96;72.01;100343.67;;;;-55
2021/09/08 12:39:12;;;;;;;9.33;5.49;;;;;;;21.02;71.90;100336.06;;;;-52
2021/09/08 12:42:12;;;;;;;10.97;5.26;;;;;;;21.05;71.96;100334.77;;;;-53
2021/09/08 12:45:12;;;;;;;8.48;5.39;;;;;;;21.07;71.99;100331.76;;;;-56
2021/09/08 12:48:12;;;;;;;8.83;5.55;;;;;;;21.07;71.89;100327.91;;;;-55
2021/09/08 12:51:12;;;;;;;7.31;5.12;;;;;;;21.06;71.89;100319.36;;;;-54
2021/09/08 12:54:12;;;;;;;9.17;5.66;;;;;;;21.06;71.84;100319.34;;;;-52
2021/09/08 12:57:12;;;;;;;7.86;5.61;;;;;;;21.07;71.94;100317.08;;;;-56
2021/09/08 13:00:12;;;;;;;9.73;5.34;;;;;;;21.06;71.97;100307.73;;;;-62
2021/09/08 13:03:13;;;;;;;9.91;5.62;;;;;;;21.06;72.00;100309.73;;;;-58
2021/09/08 13:06:12;;;;;;;7.69;5.50;;;;;;;21.06;72.03;100301.09;;;;-61
2021/09/08 13:09:12;;;;;;;9.53;5.33;;;;;;;21.07;72.02;100304.13;;;;-66
2021/09/08 13:12:12;;;;;;;7.59;5.21;;;;;;;21.07;71.99;100300.95;;;;-60
2021/09/08 13:15:12;;;;;;;8.37;5.30;;;;;;;21.08;71.96;100295.83;;;;-60
2021/09/08 13:18:12;;;;;;;8.25;5.30;;;;;;;21.08;72.05;100289.95;;;;-66
2021/09/08 13:21:13;;;;;;;9.28;5.18;;;;;;;21.09;72.03;100283.83;;;;-52
2021/09/08 13:24:12;;;;;;;6.96;5.06;;;;;;;21.10;71.99;100281.55;;;;-52
2021/09/08 13:27:12;;;;;;;11.05;5.35;;;;;;;21.09;71.79;100274.95;;;;-62
2021/09/08 13:30:12;;;;;;;7.78;5.24;;;;;;;21.09;71.93;100278.47;;;;-55
2021/09/08 13:33:12;;;;;;;12.43;5.50;;;;;;;21.08;71.84;100273.16;;;;-59
2021/09/08 13:36:12;;;;;;;6.50;5.38;;;;;;;21.08;71.90;100265.73;;;;-56
2021/09/08 13:39:12;;;;;;;8.93;5.49;;;;;;;21.09;71.87;100264.94;;;;-54
2021/09/08 13:42:12;;;;;;;7.04;5.15;;;;;;;21.10;71.79;100262.47;;;;-50
2021/09/08 13:45:12;;;;;;;7.69;5.11;;;;;;;21.12;71.76;100257.09;;;;-59
2021/09/08 13:48:12;;;;;;;8.62;4.96;;;;;;;21.13;71.67;100253.11;;;;-57
2021/09/08 13:51:12;;;;;;;8.18;4.95;;;;;;;21.12;71.65;100246.09;;;;-56
2021/09/08 13:54:12;;;;;;;6.70;5.05;;;;;;;21.12;71.65;100250.17;;;;-50
2021/09/08 13:57:12;;;;;;;5.97;4.96;;;;;;;21.11;71.58;100244.88;;;;-51
2021/09/08 14:00:12;;;;;;;8.25;5.50;;;;;;;21.11;71.56;100238.53;;;;-57
2021/09/08 14:03:12;;;;;;;9.26;5.17;;;;;;;21.09;71.69;100236.81;;;;-51
2021/09/08 14:06:12;;;;;;;6.19;4.94;;;;;;;21.10;71.54;100235.66;;;;-49
2021/09/08 14:09:12;;;;;;;6.92;4.90;;;;;;;21.09;71.59;100233.31;;;;-49
2021/09/08 14:12:13;;;;;;;7.67;4.58;;;;;;;21.09;71.51;100231.44;;;;-50
2021/09/08 14:15:12;;;;;;;7.44;4.77;;;;;;;21.08;71.50;100223.95;;;;-49
2021/09/08 14:18:12;;;;;;;6.59;5.13;;;;;;;21.08;71.52;100222.38;;;;-52
2021/09/08 14:21:12;;;;;;;6.77;4.82;;;;;;;21.08;71.50;100218.42;;;;-49
2021/09/08 14:24:14;;;;;;;6.95;5.09;;;;;;;21.08;71.42;100217.67;;;;-57
2021/09/08 14:27:12;;;;;;;6.27;5.07;;;;;;;21.08;71.46;100214.81;;;;-57
2021/09/08 14:30:12;;;;;;;7.21;4.94;;;;;;;21.08;71.43;100207.89;;;;-52
2021/09/08 14:33:12;;;;;;;7.38;4.67;;;;;;;21.07;71.46;100208.31;;;;-50
2021/09/08 14:36:12;;;;;;;6.55;4.69;;;;;;;21.07;71.40;100206.03;;;;-50
2021/09/08 14:39:12;;;;;;;6.38;4.51;;;;;;;21.06;71.53;100201.45;;;;-57
2021/09/08 14:42:12;;;;;;;5.77;4.61;;;;;;;21.05;71.46;100200.16;;;;-56
2021/09/08 14:45:14;;;;;;;5.27;4.40;;;;;;;21.05;71.48;100198.95;;;;-57
2021/09/08 14:48:12;;;;;;;5.69;4.63;;;;;;;21.06;71.40;100196.57;;;;-57
2021/09/08 14:51:12;;;;;;;5.18;4.56;;;;;;;21.06;71.46;100191.92;;;;-52
2021/09/08 14:54:12;;;;;;;6.05;4.75;;;;;;;21.05;71.48;100184.69;;;;-53
2021/09/08 14:57:12;;;;;;;6.49;4.73;;;;;;;21.05;71.47;100178.09;;;;-49
2021/09/08 15:00:12;;;;;;;6.25;4.49;;;;;;;21.05;71.39;100177.94;;;;-50
2021/09/08 15:03:12;;;;;;;6.21;4.48;;;;;;;21.04;71.38;100174.11;;;;-57
2021/09/08 15:06:12;;;;;;;6.02;4.43;;;;;;;21.04;71.47;100169.04;;;;-51
2021/09/08 15:09:12;;;;;;;5.54;4.50;;;;;;;21.04;71.42;100163.41;;;;-51
2021/09/08 15:12:12;;;;;;;4.90;4.40;;;;;;;21.04;71.39;100161.45;;;;-51
2021/09/08 15:15:13;;;;;;;5.67;4.64;;;;;;;21.04;71.38;100158.03;;;;-51
2021/09/08 15:18:12;;;;;;;5.99;4.49;;;;;;;21.04;71.34;100157.06;;;;-52
2021/09/08 15:21:12;;;;;;;6.12;4.57;;;;;;;21.04;71.35;100151.61;;;;-49
2021/09/08 15:24:12;;;;;;;5.47;4.54;;;;;;;21.03;71.39;100151.70;;;;-49
2021/09/08 15:27:12;;;;;;;5.09;4.34;;;;;;;21.03;71.48;100150.56;;;;-52
2021/09/08 15:30:12;;;;;;;5.18;4.45;;;;;;;21.04;71.51;100146.97;;;;-55
2021/09/08 15:33:12;;;;;;;6.84;4.56;;;;;;;21.05;71.52;100143.62;;;;-57
2021/09/08 15:36:12;;;;;;;5.63;4.35;;;;;;;21.06;71.57;100141.98;;;;-54
2021/09/08 15:39:12;;;;;;;5.40;4.71;;;;;;;21.07;71.60;100145.16;;;;-56
2021/09/08 15:42:20;;;;;;;6.52;4.49;;;;;;;21.08;71.60;100143.02;;;;-52
2021/09/08 15:45:12;;;;;;;6.03;4.46;;;;;;;21.09;71.64;100141.41;;;;-56
2021/09/08 15:48:12;;;;;;;5.59;4.45;;;;;;;21.10;71.58;100133.65;;;;-51
2021/09/08 15:51:12;;;;;;;6.25;4.83;;;;;;;21.11;71.61;100130.07;;;;-50
2021/09/08 15:54:12;;;;;;;5.06;4.10;;;;;;;21.12;71.64;100126.39;;;;-51
2021/09/08 15:57:12;;;;;;;5.21;4.55;;;;;;;21.13;71.67;100126.40;;;;-56
2021/09/08 16:00:12;;;;;;;5.93;4.65;;;;;;;21.14;71.75;100120.77;;;;-60
2021/09/08 16:03:12;;;;;;;6.83;4.29;;;;;;;21.15;71.58;100123.45;;;;-60
2021/09/08 16:06:12;;;;;;;6.11;4.49;;;;;;;21.16;71.65;100118.80;;;;-62
2021/09/08 16:09:12;;;;;;;6.51;4.40;;;;;;;21.16;71.70;100111.45;;;;-60
2021/09/08 16:12:12;;;;;;;8.03;4.57;;;;;;;21.17;71.65;100111.70;;;;-63
2021/09/08 16:15:12;;;;;;;7.89;4.56;;;;;;;21.19;71.63;100110.80;;;;-64
2021/09/08 16:18:12;;;;;;;6.60;4.29;;;;;;;21.19;71.66;100109.73;;;;-59
2021/09/08 16:21:12;;;;;;;6.71;4.41;;;;;;;21.20;71.64;100112.81;;;;-61
2021/09/08 16:24:12;;;;;;;5.36;4.35;;;;;;;21.20;71.70;100107.92;;;;-64
2021/09/08 16:27:12;;;;;;;5.79;4.20;;;;;;;21.20;71.77;100106.61;;;;-63
2021/09/08 16:30:12;;;;;;;7.03;4.53;;;;;;;21.22;71.69;100101.16;;;;-61
2021/09/08 16:33:12;;;;;;;4.74;4.25;;;;;;;21.23;71.79;100102.84;;;;-51
2021/09/08 16:36:13;;;;;;;6.53;4.55;;;;;;;21.24;71.70;100103.41;;;;-51
2021/09/08 16:39:12;;;;;;;6.23;4.24;;;;;;;21.26;71.78;100105.20;;;;-60